sensor_id;sensor_type;location;lat;lon;timestamp;pressure;altitude;pressure_sealevel;temperature;humidity
64368;BME280;50692;53.314;-6.300;2023-05-01T00:01:36;101405.34;;;14.30;87.92
64368;BME280;50692;53.314;-6.300;2023-05-01T00:04:22;101407.22;;;14.28;88.18
64368;BME280;50692;53.314;-6.300;2023-05-01T00:07:08;101400.03;;;14.30;87.69
64368;BME280;50692;53.314;-6.300;2023-05-01T00:09:54;101402.75;;;14.29;87.55
64368;BME280;50692;53.314;-6.300;2023-05-01T00:12:41;101415.19;;;14.28;87.53
64368;BME280;50692;53.314;-6.300;2023-05-01T00:15:27;101412.72;;;14.25;87.63
64368;BME280;50692;53.314;-6.300;2023-05-01T00:18:13;101406.38;;;14.28;87.52
64368;BME280;50692;53.314;-6.300;2023-05-01T00:20:58;101405.84;;;14.21;87.69
64368;BME280;50692;53.314;-6.300;2023-05-01T00:23:44;101412.22;;;14.19;87.51
64368;BME280;50692;53.314;-6.300;2023-05-01T00:26:30;101406.72;;;14.22;87.08
64368;BME280;50692;53.314;-6.300;2023-05-01T00:29:16;101408.00;;;14.14;87.14
64368;BME280;50692;53.314;-6.300;2023-05-01T00:32:02;101407.06;;;14.15;87.14
64368;BME280;50692;53.314;-6.300;2023-05-01T00:34:50;101406.03;;;14.18;87.00
64368;BME280;50692;53.314;-6.300;2023-05-01T00:37:36;101402.44;;;14.19;86.63
64368;BME280;50692;53.314;-6.300;2023-05-01T00:40:22;101399.69;;;14.21;86.42
64368;BME280;50692;53.314;-6.300;2023-05-01T00:43:07;101402.44;;;14.19;86.11
64368;BME280;50692;53.314;-6.300;2023-05-01T00:45:53;101396.50;;;14.14;86.37
64368;BME280;50692;53.314;-6.300;2023-05-01T00:48:39;101400.97;;;14.13;85.80
64368;BME280;50692;53.314;-6.300;2023-05-01T00:51:28;101409.97;;;14.11;86.04
64368;BME280;50692;53.314;-6.300;2023-05-01T00:54:13;101412.63;;;14.11;85.88
64368;BME280;50692;53.314;-6.300;2023-05-01T00:56:59;101406.41;;;14.12;85.78
64368;BME280;50692;53.314;-6.300;2023-05-01T00:59:45;101409.28;;;14.07;85.86
64368;BME280;50692;53.314;-6.300;2023-05-01T01:02:31;101408.94;;;14.13;85.71
64368;BME280;50692;53.314;-6.300;2023-05-01T01:05:17;101411.03;;;14.08;85.63
64368;BME280;50692;53.314;-6.300;2023-05-01T01:11:05;101415.06;;;14.15;85.62
64368;BME280;50692;53.314;-6.300;2023-05-01T01:14:08;101410.41;;;14.19;85.66
64368;BME280;50692;53.314;-6.300;2023-05-01T01:17:12;101414.63;;;14.23;85.46
64368;BME280;50692;53.314;-6.300;2023-05-01T01:20:16;101414.28;;;14.29;85.25
64368;BME280;50692;53.314;-6.300;2023-05-01T01:23:35;101409.03;;;14.28;85.69
64368;BME280;50692;53.314;-6.300;2023-05-01T01:35:52;101410.09;;;13.94;86.48
64368;BME280;50692;53.314;-6.300;2023-05-01T01:38:42;101404.09;;;13.90;86.49
64368;BME280;50692;53.314;-6.300;2023-05-01T01:41:32;101393.09;;;13.80;86.90
64368;BME280;50692;53.314;-6.300;2023-05-01T01:47:13;101418.22;;;13.75;88.11
64368;BME280;50692;53.314;-6.300;2023-05-01T01:50:02;101406.72;;;13.74;88.44
64368;BME280;50692;53.314;-6.300;2023-05-01T01:52:50;101406.66;;;13.76;88.45
64368;BME280;50692;53.314;-6.300;2023-05-01T01:55:39;101395.84;;;13.79;88.48
64368;BME280;50692;53.314;-6.300;2023-05-01T01:58:26;101400.41;;;13.77;88.66
64368;BME280;50692;53.314;-6.300;2023-05-01T02:01:14;101391.47;;;13.78;88.64
64368;BME280;50692;53.314;-6.300;2023-05-01T02:04:02;101398.09;;;13.86;88.35
64368;BME280;50692;53.314;-6.300;2023-05-01T02:06:50;101390.13;;;13.86;88.25
64368;BME280;50692;53.314;-6.300;2023-05-01T02:09:37;101383.44;;;13.79;88.14
64368;BME280;50692;53.314;-6.300;2023-05-01T02:12:24;101400.97;;;13.82;88.16
64368;BME280;50692;53.314;-6.300;2023-05-01T02:15:12;101402.94;;;13.78;88.06
64368;BME280;50692;53.314;-6.300;2023-05-01T02:18:01;101393.28;;;13.77;88.09
64368;BME280;50692;53.314;-6.300;2023-05-01T02:20:50;101394.81;;;13.81;87.97
64368;BME280;50692;53.314;-6.300;2023-05-01T02:23:37;101389.44;;;13.83;87.64
64368;BME280;50692;53.314;-6.300;2023-05-01T02:26:25;101393.53;;;13.88;87.18
64368;BME280;50692;53.314;-6.300;2023-05-01T02:29:13;101384.53;;;13.75;87.25
64368;BME280;50692;53.314;-6.300;2023-05-01T02:31:59;101386.94;;;13.80;87.33
64368;BME280;50692;53.314;-6.300;2023-05-01T02:34:46;101386.94;;;13.80;87.36
64368;BME280;50692;53.314;-6.300;2023-05-01T02:37:32;101387.00;;;13.78;87.44
64368;BME280;50692;53.314;-6.300;2023-05-01T02:40:18;101382.47;;;13.80;87.58
64368;BME280;50692;53.314;-6.300;2023-05-01T02:43:08;101381.63;;;13.80;87.50
64368;BME280;50692;53.314;-6.300;2023-05-01T02:45:56;101382.47;;;13.80;87.64
64368;BME280;50692;53.314;-6.300;2023-05-01T02:48:43;101385.22;;;13.79;87.56
64368;BME280;50692;53.314;-6.300;2023-05-01T02:51:31;101382.91;;;13.73;87.72
64368;BME280;50692;53.314;-6.300;2023-05-01T02:54:21;101392.84;;;13.69;88.04
64368;BME280;50692;53.314;-6.300;2023-05-01T02:57:08;101393.59;;;13.71;87.86
64368;BME280;50692;53.314;-6.300;2023-05-01T02:59:55;101390.34;;;13.66;88.23
64368;BME280;50692;53.314;-6.300;2023-05-01T03:02:41;101390.19;;;13.69;88.25
64368;BME280;50692;53.314;-6.300;2023-05-01T03:05:26;101392.91;;;13.67;88.36
64368;BME280;50692;53.314;-6.300;2023-05-01T03:08:12;101392.84;;;13.69;88.28
64368;BME280;50692;53.314;-6.300;2023-05-01T03:10:58;101399.09;;;13.68;88.47
64368;BME280;50692;53.314;-6.300;2023-05-01T03:13:44;101393.09;;;13.64;88.62
64368;BME280;50692;53.314;-6.300;2023-05-01T03:16:32;101384.19;;;13.65;88.63
64368;BME280;50692;53.314;-6.300;2023-05-01T03:19:17;101380.31;;;13.71;88.56
64368;BME280;50692;53.314;-6.300;2023-05-01T03:22:03;101379.22;;;13.75;88.22
64368;BME280;50692;53.314;-6.300;2023-05-01T03:24:49;101375.97;;;13.70;88.52
64368;BME280;50692;53.314;-6.300;2023-05-01T03:27:35;101378.53;;;13.72;88.43
64368;BME280;50692;53.314;-6.300;2023-05-01T03:30:21;101379.31;;;13.74;88.26
64368;BME280;50692;53.314;-6.300;2023-05-01T03:33:07;101373.31;;;13.70;88.22
64368;BME280;50692;53.314;-6.300;2023-05-01T03:36:03;101377.50;;;13.74;88.33
64368;BME280;50692;53.314;-6.300;2023-05-01T03:38:50;101375.28;;;13.66;88.48
64368;BME280;50692;53.314;-6.300;2023-05-01T03:41:35;101395.50;;;13.69;88.54
64368;BME280;50692;53.314;-6.300;2023-05-01T03:44:21;101392.75;;;13.71;88.79
64368;BME280;50692;53.314;-6.300;2023-05-01T03:47:07;101401.41;;;13.74;88.78
64368;BME280;50692;53.314;-6.300;2023-05-01T03:49:53;101398.91;;;13.71;89.16
64368;BME280;50692;53.314;-6.300;2023-05-01T03:52:39;101391.38;;;13.63;89.44
64368;BME280;50692;53.314;-6.300;2023-05-01T03:55:25;101396.53;;;13.66;89.01
64368;BME280;50692;53.314;-6.300;2023-05-01T03:58:11;101395.66;;;13.66;89.60
64368;BME280;50692;53.314;-6.300;2023-05-01T04:00:57;101403.38;;;13.71;89.78
64368;BME280;50692;53.314;-6.300;2023-05-01T04:03:45;101407.94;;;13.68;89.82
64368;BME280;50692;53.314;-6.300;2023-05-01T04:06:31;101411.63;;;13.66;90.02
64368;BME280;50692;53.314;-6.300;2023-05-01T04:09:17;101407.16;;;13.66;90.31
64368;BME280;50692;53.314;-6.300;2023-05-01T04:12:03;101408.16;;;13.64;90.64
64368;BME280;50692;53.314;-6.300;2023-05-01T04:14:49;101414.53;;;13.61;90.56
64368;BME280;50692;53.314;-6.300;2023-05-01T04:17:36;101419.91;;;13.60;90.90
64368;BME280;50692;53.314;-6.300;2023-05-01T04:20:22;101423.50;;;13.59;90.83
64368;BME280;50692;53.314;-6.300;2023-05-01T04:23:08;101427.97;;;13.58;90.95
64368;BME280;50692;53.314;-6.300;2023-05-01T04:25:54;101432.34;;;13.59;90.93
64368;BME280;50692;53.314;-6.300;2023-05-01T04:28:39;101429.59;;;13.61;90.75
64368;BME280;50692;53.314;-6.300;2023-05-01T04:31:25;101427.63;;;13.64;90.62
64368;BME280;50692;53.314;-6.300;2023-05-01T04:34:11;101432.06;;;13.64;90.85
64368;BME280;50692;53.314;-6.300;2023-05-01T04:36:57;101429.50;;;13.62;90.68
64368;BME280;50692;53.314;-6.300;2023-05-01T04:39:43;101440.91;;;13.64;90.86
64368;BME280;50692;53.314;-6.300;2023-05-01T04:42:32;101438.94;;;13.68;90.95
64368;BME280;50692;53.314;-6.300;2023-05-01T04:45:18;101444.25;;;13.68;90.91
64368;BME280;50692;53.314;-6.300;2023-05-01T04:48:04;101451.22;;;13.71;90.81
64368;BME280;50692;53.314;-6.300;2023-05-01T04:50:50;101452.84;;;13.73;90.79
64368;BME280;50692;53.314;-6.300;2023-05-01T04:53:35;101452.91;;;13.72;90.99
64368;BME280;50692;53.314;-6.300;2023-05-01T04:56:21;101461.66;;;13.74;90.90
64368;BME280;50692;53.314;-6.300;2023-05-01T04:59:07;101465.44;;;13.70;91.06
64368;BME280;50692;53.314;-6.300;2023-05-01T05:01:53;101457.31;;;13.73;90.89
64368;BME280;50692;53.314;-6.300;2023-05-01T05:04:39;101465.97;;;13.76;90.89
64368;BME280;50692;53.314;-6.300;2023-05-01T05:07:25;101454.19;;;13.64;91.21
64368;BME280;50692;53.314;-6.300;2023-05-01T05:10:10;101479.47;;;13.72;91.27
64368;BME280;50692;53.314;-6.300;2023-05-01T05:12:56;101465.59;;;13.66;91.14
64368;BME280;50692;53.314;-6.300;2023-05-01T05:15:42;101468.78;;;13.73;91.21
64368;BME280;50692;53.314;-6.300;2023-05-01T05:18:28;101469.63;;;13.74;91.44
64368;BME280;50692;53.314;-6.300;2023-05-01T05:21:14;101469.53;;;13.75;91.17
64368;BME280;50692;53.314;-6.300;2023-05-01T05:24:00;101470.22;;;13.79;91.60
64368;BME280;50692;53.314;-6.300;2023-05-01T05:26:47;101469.84;;;13.86;91.08
64368;BME280;50692;53.314;-6.300;2023-05-01T05:29:33;101473.25;;;13.88;90.99
64368;BME280;50692;53.314;-6.300;2023-05-01T05:32:19;101467.19;;;13.86;91.09
64368;BME280;50692;53.314;-6.300;2023-05-01T05:35:05;101473.25;;;13.88;91.18
64368;BME280;50692;53.314;-6.300;2023-05-01T05:37:51;101478.50;;;13.90;91.39
64368;BME280;50692;53.314;-6.300;2023-05-01T05:40:37;101479.19;;;13.94;91.56
64368;BME280;50692;53.314;-6.300;2023-05-01T05:43:23;101481.84;;;13.94;91.53
64368;BME280;50692;53.314;-6.300;2023-05-01T05:46:09;101481.84;;;13.94;91.45
64368;BME280;50692;53.314;-6.300;2023-05-01T05:48:55;101482.53;;;13.97;91.29
64368;BME280;50692;53.314;-6.300;2023-05-01T05:51:40;101482.59;;;13.96;91.49
64368;BME280;50692;53.314;-6.300;2023-05-01T05:54:26;101484.25;;;13.98;91.36
64368;BME280;50692;53.314;-6.300;2023-05-01T05:57:12;101483.56;;;13.95;91.56
64368;BME280;50692;53.314;-6.300;2023-05-01T05:59:58;101483.22;;;14.01;91.58
64368;BME280;50692;53.314;-6.300;2023-05-01T06:02:44;101489.41;;;14.01;91.71
64368;BME280;50692;53.314;-6.300;2023-05-01T06:05:31;101491.97;;;14.03;91.80
64368;BME280;50692;53.314;-6.300;2023-05-01T06:08:17;101495.63;;;14.00;91.94
64368;BME280;50692;53.314;-6.300;2023-05-01T06:11:03;101494.19;;;13.95;92.02
64368;BME280;50692;53.314;-6.300;2023-05-01T06:13:48;101513.56;;;13.97;91.90
64368;BME280;50692;53.314;-6.300;2023-05-01T06:16:34;101511.00;;;13.95;91.95
64368;BME280;50692;53.314;-6.300;2023-05-01T06:19:20;101517.16;;;13.96;91.77
64368;BME280;50692;53.314;-6.300;2023-05-01T06:22:06;101514.25;;;14.00;91.39
64368;BME280;50692;53.314;-6.300;2023-05-01T06:24:52;101519.34;;;14.05;91.24
64368;BME280;50692;53.314;-6.300;2023-05-01T06:27:38;101532.53;;;14.06;91.24
64368;BME280;50692;53.314;-6.300;2023-05-01T06:30:23;101519.66;;;13.99;90.99
64368;BME280;50692;53.314;-6.300;2023-05-01T06:33:09;101532.09;;;13.98;91.08
64368;BME280;50692;53.314;-6.300;2023-05-01T06:35:55;101534.59;;;14.01;91.00
64368;BME280;50692;53.314;-6.300;2023-05-01T06:38:44;101530.03;;;14.03;90.87
64368;BME280;50692;53.314;-6.300;2023-05-01T06:41:33;101531.16;;;13.99;90.60
64368;BME280;50692;53.314;-6.300;2023-05-01T06:44:20;101524.28;;;13.95;90.56
64368;BME280;50692;53.314;-6.300;2023-05-01T06:47:06;101538.28;;;13.99;90.62
64368;BME280;50692;53.314;-6.300;2023-05-01T06:49:52;101537.47;;;13.97;90.75
64368;BME280;50692;53.314;-6.300;2023-05-01T06:52:39;101542.63;;;14.00;90.64
64368;BME280;50692;53.314;-6.300;2023-05-01T06:55:24;101551.94;;;14.08;90.39
64368;BME280;50692;53.314;-6.300;2023-05-01T06:58:10;101555.81;;;14.19;90.12
64368;BME280;50692;53.314;-6.300;2023-05-01T07:00:56;101543.97;;;14.24;89.90
64368;BME280;50692;53.314;-6.300;2023-05-01T07:03:42;101546.34;;;14.29;89.68
64368;BME280;50692;53.314;-6.300;2023-05-01T07:06:28;101552.13;;;14.37;89.47
64368;BME280;50692;53.314;-6.300;2023-05-01T07:09:14;101550.16;;;14.40;89.29
64368;BME280;50692;53.314;-6.300;2023-05-01T07:12:00;101553.16;;;14.34;89.31
64368;BME280;50692;53.314;-6.300;2023-05-01T07:14:47;101553.75;;;14.39;89.11
64368;BME280;50692;53.314;-6.300;2023-05-01T07:17:33;101559.06;;;14.39;88.84
64368;BME280;50692;53.314;-6.300;2023-05-01T07:20:19;101558.56;;;14.49;88.84
64368;BME280;50692;53.314;-6.300;2023-05-01T07:23:05;101558.44;;;14.52;88.44
64368;BME280;50692;53.314;-6.300;2023-05-01T07:25:51;101556.97;;;14.62;88.22
64368;BME280;50692;53.314;-6.300;2023-05-01T07:28:37;101553.34;;;14.63;87.52
64368;BME280;50692;53.314;-6.300;2023-05-01T07:31:23;101561.91;;;14.68;87.06
64368;BME280;50692;53.314;-6.300;2023-05-01T07:34:09;101561.91;;;14.84;86.85
64368;BME280;50692;53.314;-6.300;2023-05-01T07:36:55;101567.22;;;15.00;86.33
64368;BME280;50692;53.314;-6.300;2023-05-01T07:39:41;101573.13;;;15.05;85.59
64368;BME280;50692;53.314;-6.300;2023-05-01T07:42:27;101571.22;;;15.07;84.94
64368;BME280;50692;53.314;-6.300;2023-05-01T07:45:13;101578.50;;;15.19;84.62
64368;BME280;50692;53.314;-6.300;2023-05-01T07:47:58;101578.75;;;15.30;83.58
64368;BME280;50692;53.314;-6.300;2023-05-01T07:50:45;101578.63;;;15.32;82.24
64368;BME280;50692;53.314;-6.300;2023-05-01T07:53:31;101575.97;;;15.32;81.09
64368;BME280;50692;53.314;-6.300;2023-05-01T07:56:17;101583.03;;;15.33;80.35
64368;BME280;50692;53.314;-6.300;2023-05-01T07:59:03;101577.72;;;15.33;80.01
64368;BME280;50692;53.314;-6.300;2023-05-01T08:01:49;101581.72;;;15.40;79.71
64368;BME280;50692;53.314;-6.300;2023-05-01T08:04:35;101596.06;;;15.38;78.87
64368;BME280;50692;53.314;-6.300;2023-05-01T08:07:20;101598.81;;;15.36;78.28
64368;BME280;50692;53.314;-6.300;2023-05-01T08:10:07;101587.06;;;15.40;78.01
64368;BME280;50692;53.314;-6.300;2023-05-01T08:12:52;101587.16;;;15.53;77.97
64368;BME280;50692;53.314;-6.300;2023-05-01T08:15:38;101588.94;;;15.68;77.38
64368;BME280;50692;53.314;-6.300;2023-05-01T08:18:27;101595.06;;;15.85;76.40
64368;BME280;50692;53.314;-6.300;2023-05-01T08:21:13;101597.06;;;15.95;74.71
64368;BME280;50692;53.314;-6.300;2023-05-01T08:24:00;101593.16;;;16.01;73.45
64368;BME280;50692;53.314;-6.300;2023-05-01T08:26:47;101592.22;;;16.16;73.40
64368;BME280;50692;53.314;-6.300;2023-05-01T08:29:33;101599.53;;;16.27;72.97
64368;BME280;50692;53.314;-6.300;2023-05-01T08:32:19;101596.88;;;16.41;72.63
64368;BME280;50692;53.314;-6.300;2023-05-01T08:35:06;101607.53;;;16.41;70.73
64368;BME280;50692;53.314;-6.300;2023-05-01T08:37:53;101610.41;;;16.38;70.77
64368;BME280;50692;53.314;-6.300;2023-05-01T08:40:42;101608.59;;;16.24;70.45
64368;BME280;50692;53.314;-6.300;2023-05-01T08:43:31;101604.09;;;16.11;70.57
64368;BME280;50692;53.314;-6.300;2023-05-01T08:49:20;101621.56;;;16.30;71.32
64368;BME280;50692;53.314;-6.300;2023-05-01T08:52:07;101625.16;;;16.29;71.14
64368;BME280;50692;53.314;-6.300;2023-05-01T08:54:56;101628.41;;;16.35;70.51
64368;BME280;50692;53.314;-6.300;2023-05-01T08:57:45;101622.59;;;16.42;70.69
64368;BME280;50692;53.314;-6.300;2023-05-01T09:00:31;101621.09;;;16.65;70.59
64368;BME280;50692;53.314;-6.300;2023-05-01T09:03:19;101606.38;;;16.74;69.35
64368;BME280;50692;53.314;-6.300;2023-05-01T09:06:07;101621.69;;;16.85;68.16
64368;BME280;50692;53.314;-6.300;2023-05-01T09:08:53;101621.50;;;16.88;68.23
64368;BME280;50692;53.314;-6.300;2023-05-01T09:11:43;101620.69;;;17.00;67.53
64368;BME280;50692;53.314;-6.300;2023-05-01T09:14:30;101619.81;;;16.99;66.89
64368;BME280;50692;53.314;-6.300;2023-05-01T09:17:17;101619.63;;;17.02;66.50
64368;BME280;50692;53.314;-6.300;2023-05-01T09:20:05;101626.88;;;17.00;65.90
64368;BME280;50692;53.314;-6.300;2023-05-01T09:22:52;101620.88;;;16.97;65.95
64368;BME280;50692;53.314;-6.300;2023-05-01T09:25:38;101620.69;;;17.00;66.11
64368;BME280;50692;53.314;-6.300;2023-05-01T09:28:44;101624.34;;;17.12;65.88
64368;BME280;50692;53.314;-6.300;2023-05-01T09:31:30;101617.63;;;17.19;65.52
64368;BME280;50692;53.314;-6.300;2023-05-01T09:34:19;101617.09;;;17.14;65.09
64368;BME280;50692;53.314;-6.300;2023-05-01T09:37:06;101620.09;;;17.09;65.09
64368;BME280;50692;53.314;-6.300;2023-05-01T09:40:13;101620.03;;;17.23;65.14
64368;BME280;50692;53.314;-6.300;2023-05-01T09:42:59;101622.75;;;17.49;64.76
64368;BME280;50692;53.314;-6.300;2023-05-01T09:46:01;101624.94;;;17.69;63.42
64368;BME280;50692;53.314;-6.300;2023-05-01T09:49:00;101630.22;;;17.84;62.74
64368;BME280;50692;53.314;-6.300;2023-05-01T09:51:48;101622.63;;;17.90;62.62
64368;BME280;50692;53.314;-6.300;2023-05-01T09:54:34;101624.88;;;17.96;61.80
64368;BME280;50692;53.314;-6.300;2023-05-01T09:57:36;101632.25;;;17.93;60.68
64368;BME280;50692;53.314;-6.300;2023-05-01T10:00:25;101626.47;;;17.86;61.08
64368;BME280;50692;53.314;-6.300;2023-05-01T10:03:12;101625.63;;;17.86;61.06
64368;BME280;50692;53.314;-6.300;2023-05-01T10:05:59;101631.41;;;18.05;60.56
64368;BME280;50692;53.314;-6.300;2023-05-01T10:08:49;101636.72;;;18.43;59.43
64368;BME280;50692;53.314;-6.300;2023-05-01T10:11:49;101640.97;;;18.72;57.63
64368;BME280;50692;53.314;-6.300;2023-05-01T10:14:56;101639.91;;;18.98;55.88
64368;BME280;50692;53.314;-6.300;2023-05-01T10:17:43;101651.44;;;19.11;55.63
64368;BME280;50692;53.314;-6.300;2023-05-01T10:20:30;101644.59;;;19.31;55.24
64368;BME280;50692;53.314;-6.300;2023-05-01T10:23:17;101641.13;;;19.42;54.32
64368;BME280;50692;53.314;-6.300;2023-05-01T10:26:03;101641.56;;;19.36;53.89
64368;BME280;50692;53.314;-6.300;2023-05-01T10:28:50;101639.91;;;19.46;53.89
64368;BME280;50692;53.314;-6.300;2023-05-01T10:31:37;101644.88;;;19.63;53.80
64368;BME280;50692;53.314;-6.300;2023-05-01T10:34:24;101637.25;;;19.81;53.18
64368;BME280;50692;53.314;-6.300;2023-05-01T10:40:47;101646.97;;;19.71;51.75
64368;BME280;50692;53.314;-6.300;2023-05-01T10:43:33;101654.63;;;19.40;52.47
64368;BME280;50692;53.314;-6.300;2023-05-01T10:49:05;101639.28;;;19.67;53.03
64368;BME280;50692;53.314;-6.300;2023-05-01T10:54:44;101648.16;;;20.36;50.95
64368;BME280;50692;53.314;-6.300;2023-05-01T10:57:43;101646.81;;;20.75;49.96
64368;BME280;50692;53.314;-6.300;2023-05-01T11:00:30;101634.63;;;21.15;49.45
64368;BME280;50692;53.314;-6.300;2023-05-01T11:06:09;101645.56;;;21.34;47.30
64368;BME280;50692;53.314;-6.300;2023-05-01T11:08:55;101649.97;;;21.24;48.32
64368;BME280;50692;53.314;-6.300;2023-05-01T11:14:27;101652.44;;;21.16;47.69
64368;BME280;50692;53.314;-6.300;2023-05-01T11:23:18;101655.56;;;22.27;45.93
64368;BME280;50692;53.314;-6.300;2023-05-01T11:26:05;101650.00;;;22.19;45.40
64368;BME280;50692;53.314;-6.300;2023-05-01T11:28:53;101658.41;;;21.84;44.92
64368;BME280;50692;53.314;-6.300;2023-05-01T11:31:40;101661.94;;;21.42;45.31
64368;BME280;50692;53.314;-6.300;2023-05-01T11:34:26;101653.78;;;21.21;46.00
64368;BME280;50692;53.314;-6.300;2023-05-01T11:37:12;101665.22;;;20.91;46.12
64368;BME280;50692;53.314;-6.300;2023-05-01T11:39:59;101660.03;;;20.67;45.77
64368;BME280;50692;53.314;-6.300;2023-05-01T11:43:06;101658.19;;;20.68;44.85
64368;BME280;50692;53.314;-6.300;2023-05-01T11:45:52;101626.66;;;20.47;45.27
64368;BME280;50692;53.314;-6.300;2023-05-01T11:48:39;101642.56;;;20.50;45.80
64368;BME280;50692;53.314;-6.300;2023-05-01T11:51:27;101651.47;;;20.62;45.99
64368;BME280;50692;53.314;-6.300;2023-05-01T11:54:13;101654.91;;;20.53;45.88
64368;BME280;50692;53.314;-6.300;2023-05-01T11:56:59;101651.47;;;20.62;45.58
64368;BME280;50692;53.314;-6.300;2023-05-01T11:59:46;101649.75;;;20.72;45.62
64368;BME280;50692;53.314;-6.300;2023-05-01T12:02:32;101641.56;;;20.74;45.90
64368;BME280;50692;53.314;-6.300;2023-05-01T12:05:18;101659.41;;;20.75;45.57
64368;BME280;50692;53.314;-6.300;2023-05-01T12:08:22;101652.41;;;20.83;45.64
64368;BME280;50692;53.314;-6.300;2023-05-01T12:11:09;101647.59;;;20.98;45.43
64368;BME280;50692;53.314;-6.300;2023-05-01T12:13:55;101646.66;;;20.99;44.97
64368;BME280;50692;53.314;-6.300;2023-05-01T12:16:42;101650.53;;;20.95;45.13
64368;BME280;50692;53.314;-6.300;2023-05-01T12:19:28;101652.66;;;20.92;45.21
64368;BME280;50692;53.314;-6.300;2023-05-01T12:22:14;101655.22;;;20.93;45.21
64368;BME280;50692;53.314;-6.300;2023-05-01T12:24:59;101654.47;;;20.91;45.35
64368;BME280;50692;53.314;-6.300;2023-05-01T12:27:46;101650.59;;;20.73;45.80
64368;BME280;50692;53.314;-6.300;2023-05-01T12:30:32;101644.13;;;20.75;45.54
64368;BME280;50692;53.314;-6.300;2023-05-01T12:33:20;101647.81;;;20.74;44.93
64368;BME280;50692;53.314;-6.300;2023-05-01T12:36:09;101640.38;;;20.67;44.28
64368;BME280;50692;53.314;-6.300;2023-05-01T12:38:58;101653.19;;;20.63;44.59
64368;BME280;50692;53.314;-6.300;2023-05-01T12:41:49;101652.53;;;20.48;45.08
64368;BME280;50692;53.314;-6.300;2023-05-01T12:44:36;101658.88;;;20.25;45.43
64368;BME280;50692;53.314;-6.300;2023-05-01T12:47:22;101635.44;;;19.93;45.85
64368;BME280;50692;53.314;-6.300;2023-05-01T12:50:08;101648.72;;;19.95;45.94
64368;BME280;50692;53.314;-6.300;2023-05-01T12:52:54;101651.91;;;20.00;45.77
64368;BME280;50692;53.314;-6.300;2023-05-01T12:55:50;101655.69;;;20.08;46.09
64368;BME280;50692;53.314;-6.300;2023-05-01T12:58:37;101647.53;;;20.10;45.94
64368;BME280;50692;53.314;-6.300;2023-05-01T13:01:24;101654.00;;;20.07;45.94
64368;BME280;50692;53.314;-6.300;2023-05-01T13:04:11;101660.56;;;20.03;45.94
64368;BME280;50692;53.314;-6.300;2023-05-01T13:06:57;101655.69;;;19.97;46.79
64368;BME280;50692;53.314;-6.300;2023-05-01T13:09:54;101660.44;;;20.05;47.08
64368;BME280;50692;53.314;-6.300;2023-05-01T13:12:43;101652.41;;;20.16;46.99
64368;BME280;50692;53.314;-6.300;2023-05-01T13:15:30;101646.69;;;20.21;47.27
64368;BME280;50692;53.314;-6.300;2023-05-01T13:18:16;101660.50;;;20.39;47.49
64368;BME280;50692;53.314;-6.300;2023-05-01T13:21:06;101664.63;;;20.43;47.10
64368;BME280;50692;53.314;-6.300;2023-05-01T13:23:53;101655.84;;;20.41;46.90
64368;BME280;50692;53.314;-6.300;2023-05-01T13:26:39;101660.50;;;20.39;46.49
64368;BME280;50692;53.314;-6.300;2023-05-01T13:29:26;101652.31;;;20.51;46.12
64368;BME280;50692;53.314;-6.300;2023-05-01T13:32:12;101649.53;;;21.07;45.86
64368;BME280;50692;53.314;-6.300;2023-05-01T13:35:01;101657.97;;;21.99;43.49
64368;BME280;50692;53.314;-6.300;2023-05-01T13:37:47;101663.00;;;22.44;42.98
64368;BME280;50692;53.314;-6.300;2023-05-01T13:40:33;101663.00;;;22.85;42.38
64368;BME280;50692;53.314;-6.300;2023-05-01T13:43:19;101665.69;;;22.85;40.60
64368;BME280;50692;53.314;-6.300;2023-05-01T13:46:06;101661.00;;;22.77;40.71
64368;BME280;50692;53.314;-6.300;2023-05-01T13:48:52;101663.38;;;23.01;40.42
64368;BME280;50692;53.314;-6.300;2023-05-01T13:51:43;101671.06;;;23.25;39.94
64368;BME280;50692;53.314;-6.300;2023-05-01T13:54:29;101666.81;;;23.71;39.39
64368;BME280;50692;53.314;-6.300;2023-05-01T13:57:15;101662.81;;;24.41;38.66
64368;BME280;50692;53.314;-6.300;2023-05-01T14:00:01;101664.81;;;24.95;37.17
64368;BME280;50692;53.314;-6.300;2023-05-01T14:02:48;101662.03;;;24.86;36.70
64368;BME280;50692;53.314;-6.300;2023-05-01T14:05:35;101656.34;;;24.62;37.13
64368;BME280;50692;53.314;-6.300;2023-05-01T14:08:23;101656.88;;;24.28;37.29
64368;BME280;50692;53.314;-6.300;2023-05-01T14:11:13;101661.81;;;23.66;36.58
64368;BME280;50692;53.314;-6.300;2023-05-01T14:13:59;101652.88;;;23.27;37.80
64368;BME280;50692;53.314;-6.300;2023-05-01T14:16:50;101666.09;;;23.30;38.21
64368;BME280;50692;53.314;-6.300;2023-05-01T14:19:37;101665.66;;;23.64;38.84
64368;BME280;50692;53.314;-6.300;2023-05-01T14:23:02;101655.56;;;24.42;37.05
64368;BME280;50692;53.314;-6.300;2023-05-01T14:25:43;101658.16;;;25.17;35.96
64368;BME280;50692;53.314;-6.300;2023-05-01T14:28:29;101659.84;;;25.35;35.46
64368;BME280;50692;53.314;-6.300;2023-05-01T14:31:24;101663.72;;;25.87;35.33
64368;BME280;50692;53.314;-6.300;2023-05-01T14:34:14;101645.00;;;25.75;35.37
64368;BME280;50692;53.314;-6.300;2023-05-01T14:37:01;101652.56;;;25.90;35.38
64368;BME280;50692;53.314;-6.300;2023-05-01T14:39:47;101651.34;;;26.18;34.81
64368;BME280;50692;53.314;-6.300;2023-05-01T14:42:33;101654.47;;;26.23;34.02
64368;BME280;50692;53.314;-6.300;2023-05-01T14:45:19;101647.91;;;25.64;34.46
64368;BME280;50692;53.314;-6.300;2023-05-01T14:48:05;101651.88;;;24.71;35.96
64368;BME280;50692;53.314;-6.300;2023-05-01T14:50:53;101642.72;;;24.07;37.55
64368;BME280;50692;53.314;-6.300;2023-05-01T14:53:39;101661.69;;;23.87;37.70
64368;BME280;50692;53.314;-6.300;2023-05-01T14:56:28;101655.56;;;23.85;38.11
64368;BME280;50692;53.314;-6.300;2023-05-01T14:59:15;101655.31;;;23.79;38.27
64368;BME280;50692;53.314;-6.300;2023-05-01T15:02:01;101661.56;;;23.79;38.66
64368;BME280;50692;53.314;-6.300;2023-05-01T15:04:47;101660.50;;;24.00;38.13